createdAt,value
2023-05-15T00:00:03.833Z,0
2023-05-15T00:01:43.638Z,0
2023-05-15T00:03:23.345Z,0
2023-05-15T00:05:03.127Z,0
2023-05-15T00:06:42.917Z,0
2023-05-15T00:08:22.653Z,0
2023-05-15T00:10:02.412Z,0
2023-05-15T00:11:42.174Z,0
2023-05-15T00:13:21.991Z,0
2023-05-15T00:15:01.722Z,0
2023-05-15T00:16:41.533Z,0
2023-05-15T00:18:21.245Z,0
2023-05-15T00:20:01.045Z,0
2023-05-15T00:21:40.759Z,0
2023-05-15T00:23:20.537Z,0
2023-05-15T00:26:40.131Z,0
2023-05-15T00:28:19.823Z,0
2023-05-15T00:29:59.590Z,0
2023-05-15T00:31:39.331Z,0
2023-05-15T00:33:19.140Z,0
2023-05-15T00:36:38.661Z,0
2023-05-15T00:38:18.428Z,0
2023-05-15T00:41:37.940Z,0
2023-05-15T00:43:17.744Z,0
2023-05-15T00:44:57.462Z,0
2023-05-15T00:46:37.368Z,0
2023-05-15T00:48:16.995Z,0
2023-05-15T00:49:56.864Z,0
2023-05-15T00:51:36.521Z,0
2023-05-15T00:53:16.338Z,0
2023-05-15T00:54:56.136Z,0
2023-05-15T00:56:35.808Z,0
2023-05-15T00:58:15.573Z,0
2023-05-15T00:59:55.332Z,0
2023-05-15T01:01:35.116Z,0
2023-05-15T01:03:14.882Z,0
2023-05-15T01:04:54.624Z,0
2023-05-15T01:06:34.389Z,0
2023-05-15T01:08:14.171Z,0
2023-05-15T01:09:53.913Z,0
2023-05-15T01:11:33.761Z,0
2023-05-15T01:13:13.483Z,0
2023-05-15T01:14:53.256Z,0
2023-05-15T01:16:32.968Z,0
2023-05-15T01:18:12.732Z,0
2023-05-15T01:19:52.501Z,0
2023-05-15T01:21:32.318Z,0
2023-05-15T01:23:12.025Z,0
2023-05-15T01:24:51.810Z,0
2023-05-15T01:26:31.640Z,0
2023-05-15T01:28:11.314Z,0
2023-05-15T01:29:51.124Z,0
2023-05-15T01:31:30.866Z,0
2023-05-15T01:33:10.627Z,0
2023-05-15T01:34:50.368Z,0
2023-05-15T01:36:30.287Z,0
2023-05-15T01:38:09.913Z,0
2023-05-15T01:39:49.673Z,0
2023-05-15T01:41:29.475Z,0
2023-05-15T01:43:09.201Z,0
2023-05-15T01:44:48.986Z,0
2023-05-15T01:46:28.729Z,0
2023-05-15T01:48:08.489Z,0
2023-05-15T01:49:48.285Z,0
2023-05-15T01:51:28.042Z,0
2023-05-15T01:53:07.762Z,0
2023-05-15T01:54:47.560Z,0
2023-05-15T01:56:27.333Z,0
2023-05-15T01:58:07.171Z,0
2023-05-15T01:59:46.852Z,0
2023-05-15T02:01:26.602Z,0
2023-05-15T02:03:06.345Z,0
2023-05-15T02:06:25.970Z,0
2023-05-15T02:09:45.421Z,0
2023-05-15T02:11:25.184Z,0
2023-05-15T02:13:04.936Z,0
2023-05-15T02:14:44.726Z,0
2023-05-15T02:16:24.480Z,0
2023-05-15T02:18:04.271Z,0
2023-05-15T02:19:44.013Z,0
2023-05-15T02:21:23.792Z,0
2023-05-15T02:23:03.622Z,0
2023-05-15T02:24:43.290Z,0
2023-05-15T02:26:23.167Z,0
2023-05-15T02:28:02.829Z,0
2023-05-15T02:29:42.626Z,0
2023-05-15T02:31:22.364Z,0
2023-05-15T02:33:02.095Z,0
2023-05-15T02:34:41.891Z,0
2023-05-15T02:36:21.682Z,0
2023-05-15T02:39:41.205Z,0
2023-05-15T02:41:20.926Z,0
2023-05-15T02:43:00.699Z,0
2023-05-15T02:44:40.449Z,0
2023-05-15T02:46:20.399Z,0
2023-05-15T02:47:59.984Z,0
2023-05-15T02:49:39.877Z,0
2023-05-15T02:51:19.589Z,0
2023-05-15T02:52:59.278Z,0
2023-05-15T02:54:39.051Z,0
2023-05-15T02:56:18.868Z,0
2023-05-15T02:57:58.574Z,0
2023-05-15T03:01:18.101Z,0
2023-05-15T03:02:57.853Z,0
2023-05-15T03:04:37.622Z,0
2023-05-15T03:06:17.393Z,0
2023-05-15T03:07:57.184Z,0
2023-05-15T03:09:36.915Z,0
2023-05-15T03:11:16.696Z,0
2023-05-15T03:12:56.432Z,0
2023-05-15T03:14:36.231Z,0
2023-05-15T03:16:15.996Z,0
2023-05-15T03:17:55.740Z,0
2023-05-15T03:19:35.621Z,0
2023-05-15T03:21:15.368Z,0
2023-05-15T03:22:55.037Z,0
2023-05-15T03:24:34.786Z,0
2023-05-15T03:26:14.551Z,0
2023-05-15T03:27:54.317Z,0
2023-05-15T03:29:34.083Z,0
2023-05-15T03:31:13.827Z,0
2023-05-15T03:32:53.624Z,0
2023-05-15T03:34:33.498Z,0
2023-05-15T03:36:13.185Z,0
2023-05-15T03:37:52.943Z,0
2023-05-15T03:39:32.747Z,0
2023-05-15T03:41:12.448Z,0
2023-05-15T03:42:52.214Z,0.12
2023-05-15T03:44:31.970Z,0.12
2023-05-15T03:46:11.716Z,0.12
2023-05-15T03:47:51.587Z,0.25
2023-05-15T03:49:31.317Z,0.25
2023-05-15T03:51:11.047Z,0.25
2023-05-15T03:52:50.765Z,0.38
2023-05-15T03:54:30.534Z,0.38
2023-05-15T03:56:10.299Z,0.38
2023-05-15T03:57:50.235Z,0.38
2023-05-15T03:59:30.016Z,0.51
2023-05-15T04:01:09.739Z,0.64
2023-05-15T04:02:49.525Z,0.64
2023-05-15T04:04:29.258Z,0.78
2023-05-15T04:06:09.096Z,0.9
2023-05-15T04:07:48.803Z,0.91
2023-05-15T04:09:28.571Z,1.16
2023-05-15T04:11:08.349Z,1.31
2023-05-15T04:12:48.029Z,1.57
2023-05-15T04:14:27.834Z,1.72
2023-05-15T04:16:07.634Z,1.86
2023-05-15T04:17:47.242Z,2
2023-05-15T04:19:27.044Z,1.88
2023-05-15T04:21:06.951Z,1.76
2023-05-15T04:22:46.509Z,1.49
2023-05-15T04:24:26.447Z,1.22
2023-05-15T04:26:06.220Z,1.22
2023-05-15T04:27:45.987Z,1.08
2023-05-15T04:29:25.598Z,1.08
2023-05-15T04:31:05.448Z,1.08
2023-05-15T04:32:45.249Z,1.09
2023-05-15T04:36:04.807Z,1.09
2023-05-15T04:37:44.556Z,1.23
2023-05-15T04:39:24.280Z,1.23
2023-05-15T04:41:04.107Z,1.37
2023-05-15T04:42:43.790Z,1.37
2023-05-15T04:44:23.517Z,1.51
2023-05-15T04:46:03.211Z,1.65
2023-05-15T04:47:43.124Z,1.79
2023-05-15T04:49:22.896Z,2.08
2023-05-15T04:51:02.696Z,2.5
2023-05-15T04:52:42.442Z,2.94
2023-05-15T04:54:22.088Z,3.1
2023-05-15T04:56:01.913Z,3.53
2023-05-15T04:57:41.721Z,3.7
2023-05-15T04:59:21.382Z,4
2023-05-15T05:01:01.241Z,4.16
2023-05-15T05:02:41.019Z,4.6
2023-05-15T05:04:20.691Z,4.76
2023-05-15T05:06:00.409Z,4.9
2023-05-15T05:07:40.301Z,5.06
2023-05-15T05:09:19.982Z,5.22
2023-05-15T05:10:59.746Z,5.37
2023-05-15T05:12:39.582Z,5.52
2023-05-15T05:14:19.196Z,5.37
2023-05-15T05:15:59.193Z,5.07
2023-05-15T05:17:38.762Z,4.63
2023-05-15T05:19:18.554Z,4.17
2023-05-15T05:20:58.272Z,4.17
2023-05-15T05:22:38.131Z,3.88
2023-05-15T05:24:17.837Z,3.87
2023-05-15T05:25:57.714Z,3.73
2023-05-15T05:27:37.365Z,3.58
2023-05-15T05:29:17.261Z,3.57
2023-05-15T05:30:57.042Z,3.42
2023-05-15T05:32:36.733Z,3.43
2023-05-15T05:34:16.452Z,4.02
2023-05-15T05:35:56.252Z,5.57
2023-05-15T05:37:36.003Z,5.73
2023-05-15T05:39:15.667Z,5.58
2023-05-15T05:40:55.626Z,5.57
2023-05-15T05:42:35.263Z,5.57
2023-05-15T05:44:15.043Z,5.44
2023-05-15T05:45:54.809Z,5.44
2023-05-15T05:47:34.608Z,5.59
2023-05-15T05:49:14.394Z,5.29
2023-05-15T05:50:54.094Z,5.28
2023-05-15T05:52:33.901Z,5.29
2023-05-15T05:54:13.615Z,5.14
2023-05-15T05:55:53.331Z,5.14
2023-05-15T05:57:33.179Z,4.98
2023-05-15T05:59:12.919Z,4.98
2023-05-15T06:00:52.610Z,4.98
2023-05-15T06:02:32.433Z,5
2023-05-15T06:04:12.163Z,4.83
2023-05-15T06:05:52.023Z,4.83
2023-05-15T06:07:31.651Z,4.69
2023-05-15T06:09:11.428Z,4.85
2023-05-15T06:10:51.227Z,4.67
2023-05-15T06:12:31.009Z,4.69
2023-05-15T06:14:10.844Z,4.69
2023-05-15T06:15:50.579Z,4.53
2023-05-15T06:17:30.312Z,4.39
2023-05-15T06:19:10.098Z,4.41
2023-05-15T06:20:49.770Z,4.38
2023-05-15T06:22:29.642Z,4.4
2023-05-15T06:24:09.300Z,4.41
2023-05-15T06:25:49.173Z,4.09
2023-05-15T06:27:28.809Z,4.08
2023-05-15T06:30:48.412Z,4.08
2023-05-15T06:32:28.103Z,3.93
2023-05-15T06:34:07.961Z,4.09
2023-05-15T06:35:47.830Z,3.95
2023-05-15T06:37:27.448Z,3.95
2023-05-15T06:39:07.192Z,3.95
2023-05-15T06:40:46.980Z,3.96
2023-05-15T06:42:26.839Z,3.79
2023-05-15T06:44:06.618Z,3.79
2023-05-15T06:45:46.479Z,3.8
2023-05-15T06:47:26.244Z,3.81
2023-05-15T06:49:05.750Z,3.64
2023-05-15T06:50:45.727Z,3.53
2023-05-15T06:52:25.402Z,3.64
2023-05-15T06:54:05.087Z,3.5
2023-05-15T06:55:45.032Z,3.5
2023-05-15T06:57:24.748Z,3.67
2023-05-15T06:59:04.494Z,3.34
2023-05-15T07:00:44.333Z,3.5
2023-05-15T07:02:23.918Z,3.36
2023-05-15T07:04:03.742Z,3.36
2023-05-15T07:05:43.382Z,3.5
2023-05-15T07:07:23.250Z,3.36
2023-05-15T07:09:03.082Z,3.21
2023-05-15T07:10:42.834Z,3.36
2023-05-15T07:12:22.559Z,3.2
2023-05-15T07:14:02.382Z,3.2
2023-05-15T07:17:21.803Z,3.05
2023-05-15T07:19:01.593Z,3.2
2023-05-15T07:20:41.249Z,3.06
2023-05-15T07:22:21.077Z,3.07
2023-05-15T07:24:00.818Z,3.22
2023-05-15T07:25:40.644Z,3.07
2023-05-15T07:27:20.410Z,3.07
2023-05-15T07:29:00.159Z,3.06
2023-05-15T07:30:39.907Z,2.92
2023-05-15T07:32:19.732Z,3.07
2023-05-15T07:33:59.457Z,2.93
2023-05-15T07:35:39.227Z,0.28
2023-05-15T07:37:18.979Z,0.28
2023-05-15T07:40:38.471Z,0.69
2023-05-15T07:42:18.317Z,1.95
2023-05-15T07:43:58.054Z,1.95
2023-05-15T07:45:37.713Z,1.96
2023-05-15T07:47:17.622Z,1.96
2023-05-15T07:48:57.337Z,1.96
2023-05-15T07:50:37.020Z,2.1
2023-05-15T07:52:16.843Z,1.82
2023-05-15T07:53:56.629Z,1.54
2023-05-15T07:55:36.426Z,1.68
2023-05-15T07:57:16.145Z,1.82
2023-05-15T07:58:55.831Z,1.68
2023-05-15T08:00:35.626Z,1.82
2023-05-15T08:02:15.346Z,1.82
2023-05-15T08:03:55.217Z,1.82
2023-05-15T08:05:34.893Z,1.68
2023-05-15T08:07:14.661Z,1.68
2023-05-15T08:08:54.457Z,1.68
2023-05-15T08:10:34.257Z,1.68
2023-05-15T08:12:13.933Z,1.54
2023-05-15T08:13:53.801Z,1.68
2023-05-15T08:15:33.537Z,1.54
2023-05-15T08:17:13.273Z,1.53
2023-05-15T08:18:52.987Z,1.54
2023-05-15T08:20:32.826Z,1.53
2023-05-15T08:22:12.519Z,1.54
2023-05-15T08:23:53.504Z,1.53
2023-05-15T08:25:32.113Z,1.53
2023-05-15T08:27:11.823Z,1.39
2023-05-15T08:28:51.628Z,1.39
2023-05-15T08:30:31.362Z,1.39
2023-05-15T08:32:11.104Z,1.53
2023-05-15T08:33:50.866Z,1.39
2023-05-15T08:35:30.718Z,1.53
2023-05-15T08:37:10.386Z,1.39
2023-05-15T08:38:50.155Z,1.39
2023-05-15T08:40:29.936Z,1.39
2023-05-15T08:42:09.742Z,1.53
2023-05-15T08:43:49.474Z,1.39
2023-05-15T08:45:29.216Z,1.53
2023-05-15T08:47:09.024Z,1.53
2023-05-15T08:48:48.820Z,1.66
2023-05-15T08:50:28.511Z,1.53
2023-05-15T08:52:08.426Z,1.53
2023-05-15T08:53:48.101Z,1.52
2023-05-15T08:55:27.813Z,1.53
2023-05-15T08:57:07.728Z,1.53
2023-05-15T08:58:47.356Z,1.53
2023-05-15T09:00:27.093Z,1.53
2023-05-15T09:02:06.986Z,1.53
2023-05-15T09:03:46.644Z,1.53
2023-05-15T09:05:26.566Z,1.39
2023-05-15T09:07:06.185Z,1.53
2023-05-15T09:08:45.971Z,1.53
2023-05-15T09:10:25.711Z,1.53
2023-05-15T09:12:05.528Z,1.53
2023-05-15T09:13:45.232Z,1.53
2023-05-15T09:15:25.136Z,1.53
2023-05-15T09:17:04.734Z,1.53
2023-05-15T09:18:44.496Z,1.53
2023-05-15T09:20:24.316Z,1.53
2023-05-15T09:22:04.121Z,1.53
2023-05-15T09:23:43.796Z,1.39
2023-05-15T09:25:23.621Z,1.53
2023-05-15T09:27:03.337Z,1.53
2023-05-15T09:28:43.137Z,1.54
2023-05-15T09:30:22.845Z,1.54
2023-05-15T09:32:02.640Z,1.54
2023-05-15T09:33:42.412Z,1.54
2023-05-15T09:35:22.263Z,1.54
2023-05-15T09:37:01.902Z,1.54
2023-05-15T09:38:41.850Z,1.54
2023-05-15T09:40:21.606Z,1.54
2023-05-15T09:42:01.297Z,1.4
2023-05-15T09:43:41.020Z,1.54
2023-05-15T09:45:20.902Z,1.4
2023-05-15T09:47:00.688Z,1.4
2023-05-15T09:48:40.265Z,1.53
2023-05-15T09:50:20.035Z,1.54
2023-05-15T09:51:59.883Z,1.4
2023-05-15T09:53:39.591Z,1.4
2023-05-15T09:55:19.421Z,1.54
2023-05-15T09:56:59.132Z,1.54
2023-05-15T09:58:38.892Z,1.4
2023-05-15T10:00:18.611Z,1.4
2023-05-15T10:01:58.469Z,1.4
2023-05-15T10:03:38.141Z,1.4
2023-05-15T10:05:17.907Z,1.4
2023-05-15T10:06:57.664Z,1.4
2023-05-15T10:08:37.500Z,1.39
2023-05-15T10:10:17.177Z,1.4
2023-05-15T10:11:56.958Z,1.39
2023-05-15T10:13:36.787Z,1.39
2023-05-15T10:15:16.486Z,1.39
2023-05-15T10:16:56.295Z,1.39
2023-05-15T10:18:36.026Z,1.39
2023-05-15T10:20:15.759Z,1.39
2023-05-15T10:21:55.527Z,1.25
2023-05-15T10:23:35.455Z,1.39
2023-05-15T10:25:15.071Z,1.39
2023-05-15T10:26:54.830Z,1.39
2023-05-15T10:28:34.651Z,1.39
2023-05-15T10:30:14.360Z,1.39
2023-05-15T10:31:54.141Z,1.4
2023-05-15T10:33:33.938Z,1.4
2023-05-15T10:35:13.655Z,1.39
2023-05-15T10:36:53.409Z,1.25
2023-05-15T10:38:33.181Z,1.39
2023-05-15T10:40:12.957Z,1.39
2023-05-15T10:41:52.728Z,1.39
2023-05-15T10:43:32.544Z,1.39
2023-05-15T10:45:12.225Z,1.4
2023-05-15T10:46:52.014Z,1.25
2023-05-15T10:48:31.759Z,1.25
2023-05-15T10:50:11.527Z,1.39
2023-05-15T10:51:51.483Z,1.25
2023-05-15T10:53:31.055Z,1.25
2023-05-15T10:55:10.822Z,1.25
2023-05-15T10:56:50.570Z,1.25
2023-05-15T10:58:30.367Z,1.25
2023-05-15T11:00:10.136Z,1.25
2023-05-15T11:01:49.953Z,1.25
2023-05-15T11:03:29.633Z,1.25
2023-05-15T11:05:09.542Z,1.25
2023-05-15T11:06:49.337Z,1.25
2023-05-15T11:08:28.923Z,1.25
2023-05-15T11:10:08.837Z,1.25
2023-05-15T11:11:48.619Z,1.25
2023-05-15T11:13:28.376Z,1.25
2023-05-15T11:15:08.145Z,1.11
2023-05-15T11:16:47.884Z,1.24
2023-05-15T11:18:27.694Z,1.24
2023-05-15T11:20:07.399Z,1.25
2023-05-15T11:21:47.176Z,1.25
2023-05-15T11:23:26.950Z,1.25
2023-05-15T11:25:06.675Z,1.25
2023-05-15T11:26:46.344Z,1.25
2023-05-15T11:30:05.876Z,1.25
2023-05-15T11:31:45.675Z,1.25
2023-05-15T11:33:25.554Z,1.25
2023-05-15T11:35:05.191Z,1.39
2023-05-15T11:36:45.019Z,1.25
2023-05-15T11:38:24.762Z,1.39
2023-05-15T11:40:04.570Z,1.25
2023-05-15T11:41:44.436Z,1.25
2023-05-15T11:43:24.096Z,1.1
2023-05-15T11:45:03.890Z,1.25
2023-05-15T11:46:43.497Z,1.39
2023-05-15T11:48:23.373Z,1.25
2023-05-15T11:50:03.134Z,1.25
2023-05-15T11:51:42.794Z,1.11
2023-05-15T11:53:22.634Z,1.24
2023-05-15T11:55:02.319Z,1.39
2023-05-15T11:56:42.203Z,1.25
2023-05-15T11:58:21.871Z,1.25
2023-05-15T12:00:01.732Z,1.24
2023-05-15T12:03:21.133Z,1.25
2023-05-15T12:05:00.903Z,1.24
2023-05-15T12:06:40.690Z,1.24
2023-05-15T12:08:20.432Z,1.24
2023-05-15T12:10:00.293Z,1.24
2023-05-15T12:13:19.726Z,1.24
2023-05-15T12:14:59.526Z,1.24
2023-05-15T12:16:39.328Z,1.24
2023-05-15T12:18:19.085Z,1.24
2023-05-15T12:19:58.804Z,1.24
2023-05-15T12:21:38.579Z,1.38
2023-05-15T12:23:18.372Z,1.24
2023-05-15T12:26:37.853Z,1.24
2023-05-15T12:28:17.619Z,1.38
2023-05-15T12:29:57.373Z,1.24
2023-05-15T12:31:37.220Z,1.39
2023-05-15T12:33:17.023Z,1.39
2023-05-15T12:34:56.685Z,1.24
2023-05-15T12:39:55.990Z,1.24
2023-05-15T12:41:35.741Z,1.24
2023-05-15T12:43:15.494Z,1.24
2023-05-15T12:44:55.275Z,1.24
2023-05-15T12:46:35.049Z,1.24
2023-05-15T12:48:14.785Z,1.24
2023-05-15T12:49:54.554Z,1.38
2023-05-15T12:51:34.399Z,1.38
2023-05-15T12:53:14.082Z,1.38
2023-05-15T12:54:53.849Z,1.24
2023-05-15T12:56:33.632Z,1.38
2023-05-15T12:59:53.135Z,1.24
2023-05-15T13:01:32.895Z,1.24
2023-05-15T13:03:12.665Z,1.38
2023-05-15T13:04:52.418Z,1.38
2023-05-15T13:06:32.167Z,1.38
2023-05-15T13:08:11.956Z,1.38
2023-05-15T13:09:51.905Z,1.38
2023-05-15T13:11:31.594Z,1.38
2023-05-15T13:13:11.335Z,1.24
2023-05-15T13:14:51.090Z,1.38
2023-05-15T13:16:30.876Z,1.24
2023-05-15T13:18:10.635Z,1.24
2023-05-15T13:19:50.320Z,1.38
2023-05-15T13:21:30.248Z,1.24
2023-05-15T13:23:09.837Z,1.24
2023-05-15T13:24:49.725Z,1.24
2023-05-15T13:26:29.512Z,1.52
2023-05-15T13:28:09.152Z,1.38
2023-05-15T13:29:48.897Z,1.24
2023-05-15T13:31:28.736Z,1.24
2023-05-15T13:33:08.453Z,1.24
2023-05-15T13:34:48.172Z,1.38
2023-05-15T13:36:27.991Z,1.24
2023-05-15T13:39:47.459Z,1.24
2023-05-15T13:41:27.234Z,1.38
2023-05-15T13:43:06.998Z,1.24
2023-05-15T13:46:26.524Z,1.24
2023-05-15T13:48:06.463Z,1.38
2023-05-15T13:49:46.121Z,1.24
2023-05-15T13:51:25.828Z,1.25
2023-05-15T13:53:05.673Z,1.24
2023-05-15T13:54:45.348Z,1.24
2023-05-15T13:56:25.182Z,1.24
2023-05-15T13:58:05.028Z,1.24
2023-05-15T13:59:44.620Z,1.24
2023-05-15T14:01:24.414Z,1.38
2023-05-15T14:03:04.181Z,1.25
2023-05-15T14:04:43.927Z,1.39
2023-05-15T14:06:23.798Z,1.39
2023-05-15T14:08:03.450Z,1.11
2023-05-15T14:09:43.222Z,1.39
2023-05-15T14:11:22.982Z,1.11
2023-05-15T14:14:42.526Z,1.24
2023-05-15T14:16:22.267Z,1.39
2023-05-15T14:18:02.054Z,1.24
2023-05-15T14:19:41.791Z,1.24
2023-05-15T14:21:21.601Z,1.1
2023-05-15T14:23:01.341Z,1.11
2023-05-15T14:24:41.094Z,1.11
2023-05-15T14:26:20.872Z,1.38
2023-05-15T14:28:00.630Z,1.25
2023-05-15T14:29:40.387Z,1.11
2023-05-15T14:31:20.167Z,1.25
2023-05-15T14:32:59.905Z,1.39
2023-05-15T14:34:39.684Z,1.25
2023-05-15T14:36:19.438Z,1.11
2023-05-15T14:37:59.207Z,1.25
2023-05-15T14:39:38.976Z,0.97
2023-05-15T14:41:18.725Z,1.1
2023-05-15T14:42:58.514Z,1.11
2023-05-15T14:44:38.268Z,1.25
2023-05-15T14:46:18.027Z,1.25
2023-05-15T14:47:57.794Z,1.25
2023-05-15T14:49:37.566Z,1.11
2023-05-15T14:51:17.317Z,1.25
2023-05-15T14:52:57.095Z,0.97
2023-05-15T14:54:36.849Z,1.1
2023-05-15T14:56:16.610Z,1.25
2023-05-15T14:57:56.390Z,1.11
2023-05-15T14:59:36.155Z,0.98
2023-05-15T15:01:15.894Z,1.12
2023-05-15T15:02:55.688Z,1.1
2023-05-15T15:04:35.420Z,1.12
2023-05-15T15:06:15.203Z,1.11
2023-05-15T15:11:14.483Z,1.25
2023-05-15T15:12:54.240Z,1.25
2023-05-15T15:14:34.072Z,0.97
2023-05-15T15:16:13.784Z,1.1
2023-05-15T15:17:53.544Z,1.11
2023-05-15T15:19:33.307Z,1.11
2023-05-15T15:21:13.074Z,0.97
2023-05-15T15:22:52.827Z,0.98
2023-05-15T15:24:32.632Z,1.1
2023-05-15T15:26:12.387Z,0.98
2023-05-15T15:27:52.128Z,1.11
2023-05-15T15:29:31.882Z,1.11
2023-05-15T15:32:51.432Z,1.24
2023-05-15T15:34:31.202Z,0.97
2023-05-15T15:36:11.110Z,1.1
2023-05-15T15:37:50.790Z,0.97
2023-05-15T15:39:30.485Z,1.1
2023-05-15T15:41:10.443Z,0.97
2023-05-15T15:42:50.029Z,0.97
2023-05-15T15:44:29.886Z,1.25
2023-05-15T15:46:09.561Z,1.11
2023-05-15T15:47:49.424Z,1.12
2023-05-15T15:49:29.085Z,1.11
2023-05-15T15:51:08.836Z,0.97
2023-05-15T15:52:48.682Z,1.1
2023-05-15T15:54:28.346Z,1.12
2023-05-15T15:56:08.332Z,1.11
2023-05-15T15:57:47.882Z,1.11
2023-05-15T15:59:27.648Z,0.97
2023-05-15T16:01:07.400Z,0.96
2023-05-15T16:02:47.179Z,0.98
2023-05-15T16:04:27.029Z,1.11
2023-05-15T16:06:06.782Z,0.98
2023-05-15T16:07:46.487Z,1.12
2023-05-15T16:09:26.247Z,1.1
2023-05-15T16:11:06.005Z,0.98
2023-05-15T16:12:45.790Z,0.83
2023-05-15T16:14:25.517Z,0.97
2023-05-15T16:16:05.301Z,1.1
2023-05-15T16:19:24.810Z,1.25
2023-05-15T16:21:04.571Z,1.25
2023-05-15T16:22:44.349Z,0.97
2023-05-15T16:24:24.101Z,1.11
2023-05-15T16:26:03.874Z,0.98
2023-05-15T16:27:43.646Z,1.11
2023-05-15T16:29:23.406Z,1.11
2023-05-15T16:31:03.166Z,0.97
2023-05-15T16:32:42.931Z,1.26
2023-05-15T16:34:22.696Z,1.11
2023-05-15T16:36:02.484Z,0.97
2023-05-15T16:37:42.217Z,1.11
2023-05-15T16:39:21.994Z,0.96
2023-05-15T16:41:01.748Z,0.98
2023-05-15T16:42:41.516Z,1.1
2023-05-15T16:46:01.049Z,1.11
2023-05-15T16:47:40.819Z,0.98
2023-05-15T16:49:20.573Z,0.96
2023-05-15T16:51:00.325Z,1.11
2023-05-15T16:52:40.170Z,0.97
2023-05-15T16:54:19.863Z,0.98
2023-05-15T16:55:59.626Z,0.97
2023-05-15T16:57:39.474Z,0.84
2023-05-15T16:59:19.147Z,1.11
2023-05-15T17:00:58.917Z,1.11
2023-05-15T17:02:38.682Z,0.97
2023-05-15T17:04:18.437Z,1.11
2023-05-15T17:05:58.214Z,1.25
2023-05-15T17:07:37.989Z,0.84
2023-05-15T17:09:17.761Z,0.97
2023-05-15T17:10:57.501Z,0.97
2023-05-15T17:12:37.259Z,0.83
2023-05-15T17:14:17.021Z,1.12
2023-05-15T17:15:56.797Z,1.12
2023-05-15T17:17:36.539Z,0.97
2023-05-15T17:19:16.313Z,0.97
2023-05-15T17:20:56.125Z,0.96
2023-05-15T17:22:35.841Z,1.12
2023-05-15T17:24:15.617Z,0.97
2023-05-15T17:25:55.374Z,0.97
2023-05-15T17:27:35.134Z,0.98
2023-05-15T17:29:14.908Z,1.11
2023-05-15T17:30:54.655Z,1.11
2023-05-15T17:34:14.212Z,0.98
2023-05-15T17:35:53.968Z,1.12
2023-05-15T17:37:33.710Z,0.97
2023-05-15T17:39:13.508Z,0.84
2023-05-15T17:40:53.252Z,0.97
2023-05-15T17:42:33.071Z,1.11
2023-05-15T17:44:12.802Z,0.97
2023-05-15T17:45:52.539Z,1.1
2023-05-15T17:47:32.308Z,0.84
2023-05-15T17:49:12.060Z,1.1
2023-05-15T17:50:51.883Z,0.83
2023-05-15T17:52:31.611Z,1.1
2023-05-15T17:54:11.364Z,0.83
2023-05-15T17:55:51.125Z,1.11
2023-05-15T17:57:30.917Z,1.11
2023-05-15T17:59:10.650Z,1.11
2023-05-15T18:00:50.423Z,0.97
2023-05-15T18:02:30.175Z,0.98
2023-05-15T18:04:09.953Z,0.98
2023-05-15T18:05:49.707Z,0.97
2023-05-15T18:07:29.457Z,0.98
2023-05-15T18:09:09.238Z,1.11
2023-05-15T18:10:49.004Z,0.98
2023-05-15T18:12:28.773Z,1.12
2023-05-15T18:14:08.538Z,0.97
2023-05-15T18:15:48.282Z,0.98
2023-05-15T18:17:28.140Z,0.97
2023-05-15T18:19:07.811Z,1.12
2023-05-15T18:20:47.581Z,1.11
2023-05-15T18:22:27.402Z,0.98
2023-05-15T18:24:07.180Z,0.97
2023-05-15T18:27:26.635Z,1.1
2023-05-15T18:29:06.453Z,0.68
2023-05-15T18:30:46.180Z,0.52
2023-05-15T18:32:25.943Z,0.26
2023-05-15T18:34:05.697Z,0.26
2023-05-15T18:35:45.470Z,0.52
2023-05-15T18:39:04.978Z,0.26
2023-05-15T18:40:44.734Z,0
2023-05-15T18:42:24.526Z,0
2023-05-15T18:44:04.357Z,0
2023-05-15T18:45:44.042Z,0
2023-05-15T18:47:23.802Z,0
2023-05-15T18:49:03.613Z,0
2023-05-15T18:50:43.363Z,0
2023-05-15T18:52:23.092Z,0
2023-05-15T18:54:02.865Z,0
2023-05-15T18:55:42.628Z,0
2023-05-15T18:57:22.453Z,0
2023-05-15T19:00:41.964Z,0
2023-05-15T19:02:21.679Z,0
2023-05-15T19:04:01.550Z,0
2023-05-15T19:05:41.287Z,0
2023-05-15T19:07:20.980Z,0
2023-05-15T19:09:00.787Z,0
2023-05-15T19:10:40.622Z,0
2023-05-15T19:12:20.272Z,0
2023-05-15T19:14:00.038Z,0
2023-05-15T19:17:19.646Z,0
2023-05-15T19:18:59.397Z,0
2023-05-15T19:20:39.102Z,0
2023-05-15T19:22:18.852Z,0
2023-05-15T19:23:58.821Z,0
2023-05-15T19:25:38.384Z,0
2023-05-15T19:27:18.149Z,0
2023-05-15T19:28:57.894Z,0
2023-05-15T19:30:37.681Z,0
2023-05-15T19:32:17.460Z,0
2023-05-15T19:33:57.203Z,0
2023-05-15T19:35:36.960Z,0
2023-05-15T19:37:16.734Z,0
2023-05-15T19:38:56.501Z,0
2023-05-15T19:40:36.243Z,0
2023-05-15T19:42:16.014Z,0
2023-05-15T19:43:55.767Z,0
2023-05-15T19:45:35.589Z,0
2023-05-15T19:47:15.310Z,0
2023-05-15T19:50:34.848Z,0
2023-05-15T19:53:54.387Z,0
2023-05-15T19:55:34.132Z,0
2023-05-15T19:57:13.919Z,0
2023-05-15T19:58:53.656Z,0
2023-05-15T20:00:33.413Z,0
2023-05-15T20:02:13.181Z,0
2023-05-15T20:03:52.950Z,0
2023-05-15T20:05:32.766Z,0
2023-05-15T20:07:12.551Z,0
2023-05-15T20:08:52.241Z,0
2023-05-15T20:10:31.992Z,0
2023-05-15T20:12:11.771Z,0
2023-05-15T20:13:51.542Z,0
2023-05-15T20:15:31.293Z,0
2023-05-15T20:17:11.077Z,0
2023-05-15T20:18:50.875Z,0
2023-05-15T20:20:30.648Z,0
2023-05-15T20:23:50.121Z,0
2023-05-15T20:25:29.878Z,0
2023-05-15T20:27:09.655Z,0
2023-05-15T20:28:49.424Z,0
2023-05-15T20:30:29.184Z,0
2023-05-15T20:32:08.946Z,0
2023-05-15T20:33:48.694Z,0
2023-05-15T20:35:28.477Z,0
2023-05-15T20:37:08.248Z,0
2023-05-15T20:38:47.995Z,0
2023-05-15T20:40:27.744Z,0
2023-05-15T20:43:47.282Z,0
2023-05-15T20:45:27.050Z,0
2023-05-15T20:47:06.800Z,0
2023-05-15T20:48:46.590Z,0
2023-05-15T20:50:26.329Z,0
2023-05-15T20:52:06.112Z,0
2023-05-15T20:53:45.885Z,0
2023-05-15T20:55:25.647Z,0
2023-05-15T20:57:05.410Z,0
2023-05-15T20:58:45.171Z,0
2023-05-15T21:00:24.921Z,0
2023-05-15T21:02:04.715Z,0
2023-05-15T21:03:44.456Z,0
2023-05-15T21:05:24.214Z,0
2023-05-15T21:07:03.977Z,0
2023-05-15T21:08:43.740Z,0
2023-05-15T21:10:23.500Z,0
2023-05-15T21:12:03.281Z,0
2023-05-15T21:13:43.086Z,0
2023-05-15T21:15:22.800Z,0
2023-05-15T21:17:02.563Z,0
2023-05-15T21:18:42.324Z,0
2023-05-15T21:20:22.082Z,0
2023-05-15T21:22:01.890Z,0
2023-05-15T21:23:41.613Z,0
2023-05-15T21:25:21.381Z,0
2023-05-15T21:28:40.908Z,0
2023-05-15T21:30:20.675Z,0
2023-05-15T21:32:00.433Z,0
2023-05-15T21:33:40.213Z,0
2023-05-15T21:35:19.970Z,0
2023-05-15T21:36:59.725Z,0
2023-05-15T21:38:39.514Z,0
2023-05-15T21:40:19.255Z,0
2023-05-15T21:41:59.021Z,0
2023-05-15T21:46:58.349Z,0
2023-05-15T21:48:38.087Z,0
2023-05-15T21:50:17.852Z,0
2023-05-15T21:51:57.613Z,0
2023-05-15T21:53:37.374Z,0
2023-05-15T21:55:17.129Z,0
2023-05-15T21:56:56.891Z,0
2023-05-15T21:58:36.664Z,0
2023-05-15T22:00:16.405Z,0
2023-05-15T22:01:56.193Z,0
2023-05-15T22:03:35.987Z,0
2023-05-15T22:05:15.717Z,0
2023-05-15T22:06:55.470Z,0
2023-05-15T22:08:35.311Z,0
2023-05-15T22:10:15.013Z,0
2023-05-15T22:11:54.769Z,0
2023-05-15T22:13:34.530Z,0
2023-05-15T22:15:14.295Z,0
2023-05-15T22:16:54.055Z,0
2023-05-15T22:18:33.840Z,0
2023-05-15T22:20:13.583Z,0
2023-05-15T22:21:53.365Z,0
2023-05-15T22:23:33.149Z,0
2023-05-15T22:25:12.887Z,0
2023-05-15T22:28:32.412Z,0
2023-05-15T22:30:12.151Z,0
2023-05-15T22:31:52.141Z,0
2023-05-15T22:33:31.824Z,0
2023-05-15T22:35:11.581Z,0
2023-05-15T22:38:31.198Z,0
2023-05-15T22:40:10.942Z,0
2023-05-15T22:41:50.733Z,0
2023-05-15T22:43:30.458Z,0
2023-05-15T22:45:10.253Z,0
2023-05-15T22:46:49.978Z,0
2023-05-15T22:48:29.810Z,0
2023-05-15T22:50:09.511Z,0
2023-05-15T22:51:49.306Z,0
2023-05-15T22:53:29.063Z,0
2023-05-15T22:55:08.814Z,0
2023-05-15T22:56:48.408Z,0
2023-05-15T22:58:28.314Z,0
2023-05-15T23:00:08.096Z,0
2023-05-15T23:01:47.902Z,0
2023-05-15T23:03:27.601Z,0
2023-05-15T23:05:07.351Z,0
2023-05-15T23:06:47.162Z,0
2023-05-15T23:08:26.891Z,0
2023-05-15T23:10:06.636Z,0
2023-05-15T23:11:46.416Z,0
2023-05-15T23:13:26.228Z,0
2023-05-15T23:15:05.955Z,0
2023-05-15T23:16:45.560Z,0
2023-05-15T23:18:25.486Z,0
2023-05-15T23:20:05.079Z,0
2023-05-15T23:21:44.861Z,0
2023-05-15T23:25:04.394Z,0
2023-05-15T23:26:44.133Z,0
2023-05-15T23:28:23.903Z,0
2023-05-15T23:30:03.664Z,0
2023-05-15T23:31:43.429Z,0
2023-05-15T23:33:23.193Z,0
2023-05-15T23:35:02.967Z,0
2023-05-15T23:36:42.734Z,0
2023-05-15T23:38:22.495Z,0
2023-05-15T23:40:02.274Z,0
2023-05-15T23:41:42.030Z,0
2023-05-15T23:43:21.784Z,0
2023-05-15T23:45:01.559Z,0
2023-05-15T23:48:21.083Z,0
2023-05-15T23:50:00.846Z,0
2023-05-15T23:51:40.602Z,0
2023-05-15T23:53:20.368Z,0
2023-05-15T23:55:00.128Z,0
2023-05-15T23:56:39.898Z,0
2023-05-15T23:58:19.663Z,0
2023-05-15T23:59:59.421Z,0
